Time;durP1;ratioP1;P1;durP2;ratioP2;P2;SDS_P1;SDS_P2;PMS_P1;PMS_P2;Temp;Humidity;BMP_temperature;BMP_pressure;BME280_temperature;BME280_humidity;BME280_pressure;Samples;Min_cycle;Max_cycle;Signal;HPM_P1;HPM_P2
2023/06/01 00:01:32;;;;;;;9.57;6.38;;;;;;;17.43;73.07;100497.69;5069674;28;20548;-68
2023/06/01 00:04:01;;;;;;;11.13;5.93;;;;;;;17.44;73.34;100507.50;5070254;28;20032;-69
2023/06/01 00:06:31;;;;;;;13.27;6.15;;;;;;;17.42;73.90;100504.97;5083359;28;20036;-68
2023/06/01 00:08:57;;;;;;;13.02;6.47;;;;;;;17.29;74.35;100490.25;5076134;28;20439;-69
2023/06/01 00:11:23;;;;;;;9.57;6.55;;;;;;;17.30;74.75;100497.34;5089166;28;20066;-68
2023/06/01 00:13:49;;;;;;;12.13;6.00;;;;;;;17.30;74.18;100513.63;5087188;28;20028;-68
2023/06/01 00:16:15;;;;;;;9.15;6.40;;;;;;;17.18;74.31;100496.00;5067579;28;20524;-67
2023/06/01 00:18:41;;;;;;;12.40;6.45;;;;;;;17.19;74.27;100503.97;5066648;28;20031;-68
2023/06/01 00:21:06;;;;;;;8.07;6.00;;;;;;;17.12;74.23;100496.72;5064990;28;20024;-68
2023/06/01 00:23:36;;;;;;;9.40;6.15;;;;;;;17.17;74.32;100499.75;5070853;28;20025;-68
2023/06/01 00:26:02;;;;;;;11.93;6.20;;;;;;;17.08;74.56;100498.06;5058950;28;20507;-67
2023/06/01 00:28:28;;;;;;;9.38;6.05;;;;;;;17.08;74.70;100495.34;5069240;28;20040;-67
2023/06/01 00:30:53;;;;;;;13.05;6.05;;;;;;;17.02;74.99;100496.91;5074934;28;20024;-69
2023/06/01 00:33:20;;;;;;;12.18;6.63;;;;;;;16.93;75.33;100483.53;5071888;28;20482;-67
2023/06/01 00:35:46;;;;;;;10.48;6.40;;;;;;;16.99;75.33;100499.13;5078775;28;20024;-68
2023/06/01 00:38:11;;;;;;;12.20;6.45;;;;;;;16.97;75.55;100503.84;5081165;28;20025;-68
2023/06/01 00:40:37;;;;;;;10.10;6.00;;;;;;;16.72;75.86;100470.53;5078576;28;20028;-69
2023/06/01 00:43:02;;;;;;;11.02;6.45;;;;;;;16.87;76.32;100508.59;5073106;28;20047;-68
2023/06/01 00:45:28;;;;;;;11.20;6.45;;;;;;;16.89;76.33;100504.69;5077358;28;20028;-68
2023/06/01 00:47:54;;;;;;;11.98;6.25;;;;;;;16.86;76.51;100507.75;5084599;28;20040;-67
2023/06/01 00:50:21;;;;;;;13.88;6.47;;;;;;;16.79;76.45;100493.19;5067571;28;20117;-69
2023/06/01 00:52:49;;;;;;;13.13;6.32;;;;;;;16.80;76.41;100500.31;5078411;28;20506;-69
2023/06/01 00:55:14;;;;;;;15.35;6.72;;;;;;;16.68;76.14;100488.13;5062675;28;20021;-67
2023/06/01 00:57:42;;;;;;;7.88;5.55;;;;;;;16.65;76.38;100485.75;5071599;28;20025;-67
2023/06/01 01:00:09;;;;;;;12.98;6.25;;;;;;;16.67;76.23;100493.72;5074827;28;20020;-68
2023/06/01 01:02:39;;;;;;;12.35;6.45;;;;;;;16.72;76.03;100503.03;5060721;28;20104;-68
2023/06/01 01:05:09;;;;;;;9.10;6.60;;;;;;;16.72;76.66;100513.00;5066058;28;20025;-68
2023/06/01 01:08:03;;;;;;;9.85;5.97;;;;;;;16.71;77.00;100511.31;5064745;28;20032;-67
2023/06/01 01:10:41;;;;;;;9.00;6.07;;;;;;;16.70;76.67;100509.63;5064439;28;20048;-67
2023/06/01 01:13:10;;;;;;;13.73;6.85;;;;;;;16.67;76.86;100504.56;5069605;28;20107;-68
2023/06/01 01:15:54;;;;;;;9.73;6.65;;;;;;;16.64;76.65;100502.19;5077384;28;20464;-78
2023/06/01 01:18:47;;;;;;;12.35;6.97;;;;;;;16.60;76.84;100496.25;5090725;28;20035;-78
2023/06/01 01:21:28;;;;;;;10.40;6.30;;;;;;;16.55;76.69;100498.63;5088350;28;20116;-78
2023/06/01 01:24:18;;;;;;;11.18;6.10;;;;;;;16.59;77.51;100505.38;5085501;28;20032;-79
2023/06/01 01:27:14;;;;;;;11.40;6.68;;;;;;;16.54;77.49;100512.34;5084859;28;20213;-79
2023/06/01 01:29:42;;;;;;;10.02;6.55;;;;;;;16.51;77.64;100515.38;5087656;28;20071;-79
2023/06/01 01:32:08;;;;;;;12.65;6.45;;;;;;;16.43;77.95;100497.25;5090864;28;20088;-78
2023/06/01 01:34:35;;;;;;;12.40;6.57;;;;;;;16.45;77.20;100502.50;5089925;28;20111;-77
2023/06/01 01:37:01;;;;;;;13.65;6.68;;;;;;;16.38;77.50;100493.31;5089023;28;20079;-77
2023/06/01 01:39:26;;;;;;;12.75;6.40;;;;;;;16.38;77.66;100498.75;5088656;28;20028;-79
2023/06/01 01:41:52;;;;;;;10.18;7.00;;;;;;;16.38;77.81;100498.75;5094531;28;20043;-79
2023/06/01 01:44:17;;;;;;;9.70;6.18;;;;;;;16.36;77.98;100498.91;5091373;28;20020;-78
2023/06/01 01:46:58;;;;;;;8.93;6.43;;;;;;;16.36;77.90;100501.63;5089613;28;20032;-79
2023/06/01 01:49:33;;;;;;;13.35;6.85;;;;;;;16.35;78.24;100501.78;5098375;28;20072;-79
2023/06/01 01:52:14;;;;;;;12.82;6.28;;;;;;;16.31;77.98;100498.56;5082230;28;20104;-78
2023/06/01 01:54:44;;;;;;;11.38;6.43;;;;;;;16.32;78.23;100504.81;5070199;28;20024;-68
2023/06/01 01:57:13;;;;;;;12.48;5.75;;;;;;;16.24;78.57;100491.25;5080098;28;20028;-68
2023/06/01 01:59:41;;;;;;;10.70;6.75;;;;;;;16.13;78.69;100472.66;5089339;28;20028;-68
2023/06/01 02:02:07;;;;;;;9.13;6.22;;;;;;;16.22;78.99;100493.31;5067616;28;20053;-67
2023/06/01 02:04:32;;;;;;;11.45;6.22;;;;;;;16.16;78.59;100494.81;5087005;28;20070;-68
2023/06/01 02:06:58;;;;;;;10.40;6.03;;;;;;;16.16;78.40;100497.53;5071983;28;20036;-68
2023/06/01 02:09:23;;;;;;;11.52;6.20;;;;;;;16.14;78.57;100495.97;5068022;28;20587;-68
2023/06/01 02:11:49;;;;;;;7.63;5.90;;;;;;;16.12;78.52;100489.91;5075012;28;20028;-68
2023/06/01 02:14:14;;;;;;;12.60;6.90;;;;;;;16.10;78.37;100494.63;5066926;28;20225;-67
2023/06/01 02:16:40;;;;;;;11.77;6.13;;;;;;;16.07;78.32;100484.13;5065931;28;20024;-68
2023/06/01 02:19:05;;;;;;;9.75;5.93;;;;;;;16.10;78.11;100491.91;5076183;28;20012;-67
2023/06/01 02:21:31;;;;;;;12.73;6.43;;;;;;;16.00;77.84;100483.97;5076949;28;20036;-68
2023/06/01 02:24:04;;;;;;;9.30;6.60;;;;;;;16.04;78.15;100488.00;5065396;28;20032;-67
2023/06/01 02:26:30;;;;;;;10.70;5.88;;;;;;;16.04;78.20;100496.13;5071258;28;20028;-67
2023/06/01 02:28:56;;;;;;;8.98;5.70;;;;;;;15.85;78.10;100464.81;5079139;28;20053;-68
2023/06/01 02:31:22;;;;;;;8.88;6.55;;;;;;;15.76;78.35;100451.41;5074758;28;20037;-68
2023/06/01 02:33:47;;;;;;;12.43;6.50;;;;;;;15.84;78.76;100468.50;5065009;28;20486;-67
2023/06/01 02:36:16;;;;;;;10.77;6.72;;;;;;;15.85;78.55;100481.03;5066678;28;20036;-68
2023/06/01 02:38:42;;;;;;;9.18;6.25;;;;;;;15.84;78.68;100473.91;5077327;28;20027;-68
2023/06/01 02:41:07;;;;;;;17.52;7.20;;;;;;;15.76;78.81;100463.09;5083343;28;20033;-69
2023/06/01 02:43:36;;;;;;;9.80;5.85;;;;;;;15.85;78.58;100480.19;5074984;28;20031;-68
2023/06/01 02:46:01;;;;;;;12.25;6.65;;;;;;;15.68;78.44;100452.22;5066941;28;20497;-68
2023/06/01 02:48:27;;;;;;;9.63;5.80;;;;;;;15.80;78.26;100486.09;5074196;28;20032;-79
2023/06/01 02:50:53;;;;;;;10.90;6.88;;;;;;;15.78;78.35;100477.31;5096772;28;20034;-79
2023/06/01 02:53:18;;;;;;;8.73;5.55;;;;;;;15.70;78.41;100458.31;5089838;28;20083;-78
2023/06/01 02:55:44;;;;;;;8.15;6.20;;;;;;;15.76;78.62;100476.59;5083801;28;20028;-79
2023/06/01 02:58:16;;;;;;;10.43;6.10;;;;;;;15.76;78.56;100484.72;5090933;28;20076;-78
2023/06/01 03:00:42;;;;;;;12.38;6.22;;;;;;;15.75;78.66;100479.47;5093447;28;20036;-78
2023/06/01 03:03:08;;;;;;;9.98;6.38;;;;;;;15.71;78.36;100480.81;5089145;28;20048;-77
2023/06/01 03:05:33;;;;;;;11.57;6.75;;;;;;;15.72;78.06;100480.66;5091846;28;20043;-78
2023/06/01 03:07:58;;;;;;;9.25;5.90;;;;;;;15.73;77.80;100485.03;5078353;28;20101;-79
2023/06/01 03:10:24;;;;;;;10.10;5.65;;;;;;;15.66;78.00;100473.19;5086946;28;20025;-78
2023/06/01 03:12:50;;;;;;;9.20;5.82;;;;;;;15.70;78.15;100488.06;5082223;28;20023;-79
2023/06/01 03:15:15;;;;;;;9.60;5.72;;;;;;;15.58;78.50;100462.31;5083080;28;20020;-79
2023/06/01 03:17:40;;;;;;;13.73;6.18;;;;;;;15.66;78.62;100477.75;5084484;28;20059;-78
2023/06/01 03:20:14;;;;;;;13.52;6.72;;;;;;;15.57;78.27;100467.91;5071988;28;20066;-79
2023/06/01 03:22:41;;;;;;;13.57;6.05;;;;;;;15.58;77.75;100470.44;5076553;28;20036;-79
2023/06/01 03:25:07;;;;;;;12.10;6.10;;;;;;;15.53;77.67;100461.13;5081174;28;20032;-79
2023/06/01 03:27:32;;;;;;;16.38;6.15;;;;;;;15.49;77.85;100455.22;5079023;28;20027;-78
2023/06/01 03:29:58;;;;;;;14.25;6.70;;;;;;;15.52;78.26;100463.00;5086767;28;20030;-79
2023/06/01 03:32:23;;;;;;;16.60;6.80;;;;;;;15.46;77.90;100455.53;5090667;28;20044;-79
2023/06/01 03:34:49;;;;;;;9.95;6.03;;;;;;;15.55;77.90;100469.94;5073151;28;20024;-78
2023/06/01 03:37:14;;;;;;;8.27;5.95;;;;;;;15.55;78.12;100481.56;5084016;28;20375;-78
2023/06/01 03:39:40;;;;;;;13.45;5.97;;;;;;;15.44;78.21;100470.22;5085851;28;20505;-78
2023/06/01 03:42:07;;;;;;;13.50;5.88;;;;;;;15.53;78.29;100480.06;5082481;28;20051;-78
2023/06/01 03:44:32;;;;;;;9.05;5.93;;;;;;;15.47;78.37;100464.47;5084345;28;20026;-78
2023/06/01 03:46:58;;;;;;;10.27;6.03;;;;;;;15.60;78.96;100475.69;5081111;28;20732;-78
2023/06/01 03:49:23;;;;;;;13.80;6.30;;;;;;;15.66;78.68;100488.56;5080960;28;20036;-79
2023/06/01 03:51:49;;;;;;;14.52;5.97;;;;;;;15.67;78.54;100477.59;5079793;28;20027;-79
2023/06/01 03:54:14;;;;;;;9.88;5.82;;;;;;;15.78;78.27;100487.25;5075925;28;20119;-68
2023/06/01 03:56:40;;;;;;;8.75;5.65;;;;;;;15.77;78.04;100481.00;5074337;28;20024;-67
2023/06/01 03:59:07;;;;;;;13.20;6.20;;;;;;;15.90;77.75;100486.78;5077709;28;20050;-67
2023/06/01 04:01:33;;;;;;;10.55;5.80;;;;;;;15.89;77.70;100479.69;5064737;28;20047;-68
2023/06/01 04:03:59;;;;;;;13.63;5.65;;;;;;;16.06;77.46;100494.13;5069012;28;20029;-68
2023/06/01 04:06:29;;;;;;;10.70;5.50;;;;;;;16.07;77.34;100478.72;5077831;28;20374;-67
2023/06/01 04:09:00;;;;;;;15.80;5.72;;;;;;;16.22;76.93;100487.88;5065879;28;20033;-68
2023/06/01 04:11:26;;;;;;;9.82;5.03;;;;;;;16.29;76.40;100483.50;5073215;28;20032;-68
2023/06/01 04:13:51;;;;;;;11.85;5.72;;;;;;;16.33;76.30;100477.59;5076608;28;20410;-68
2023/06/01 04:16:18;;;;;;;19.15;6.18;;;;;;;16.42;75.90;100486.56;5076275;28;20063;-67
2023/06/01 04:18:43;;;;;;;11.32;5.53;;;;;;;16.53;75.54;100484.41;5068709;28;20740;-67
2023/06/01 04:21:09;;;;;;;13.23;5.53;;;;;;;16.56;75.35;100485.91;5071045;28;20106;-67
2023/06/01 04:23:35;;;;;;;9.80;5.10;;;;;;;16.60;75.05;100481.88;5069679;28;20119;-68
2023/06/01 04:26:02;;;;;;;9.95;5.75;;;;;;;16.76;74.55;100498.09;5067448;28;20025;-69
2023/06/01 04:28:29;;;;;;;9.63;5.20;;;;;;;16.84;74.59;100488.13;5069374;28;20044;-67
2023/06/01 04:30:55;;;;;;;8.50;5.32;;;;;;;16.88;74.22;100481.34;5073166;28;20024;-68
2023/06/01 04:33:22;;;;;;;13.02;4.95;;;;;;;16.92;73.73;100465.56;5065261;28;20029;-68
2023/06/01 04:35:48;;;;;;;12.05;4.63;;;;;;;17.10;73.01;100485.22;5071700;28;20082;-68
2023/06/01 04:38:16;;;;;;;8.77;4.78;;;;;;;17.23;72.51;100488.22;5074647;28;20037;-68
2023/06/01 04:40:41;;;;;;;8.75;4.45;;;;;;;17.24;71.38;100477.22;5064558;28;20028;-69
2023/06/01 04:43:07;;;;;;;6.25;4.28;;;;;;;17.34;70.46;100477.84;5075500;28;20034;-68
2023/06/01 04:45:33;;;;;;;9.82;4.70;;;;;;;17.59;69.13;100498.50;5080568;28;20081;-71
2023/06/01 04:47:59;;;;;;;11.23;4.88;;;;;;;17.60;68.38;100473.06;5078431;28;20040;-72
2023/06/01 04:50:28;;;;;;;11.88;4.80;;;;;;;17.83;67.83;100495.66;5082477;28;20043;-72
2023/06/01 04:52:54;;;;;;;9.43;4.93;;;;;;;17.95;67.51;100493.41;5084166;28;20035;-72
2023/06/01 04:55:20;;;;;;;7.75;4.20;;;;;;;18.04;66.80;100486.91;5074890;28;20052;-72
2023/06/01 04:57:46;;;;;;;8.63;4.35;;;;;;;18.25;66.31;100484.38;5084622;28;20051;-73
2023/06/01 05:00:17;;;;;;;7.00;3.90;;;;;;;18.35;65.76;100484.19;5081080;28;20463;-72
2023/06/01 05:02:44;;;;;;;12.57;4.40;;;;;;;18.53;65.33;100488.31;5080886;28;20028;-71
2023/06/01 05:05:10;;;;;;;12.70;4.88;;;;;;;18.66;65.12;100485.81;5081440;28;20028;-71
2023/06/01 05:07:36;;;;;;;13.13;4.45;;;;;;;18.71;65.14;100467.13;5086826;28;20032;-72
2023/06/01 05:10:05;;;;;;;8.75;4.32;;;;;;;18.95;64.36;100487.78;5073861;28;20035;-72
2023/06/01 05:12:35;;;;;;;10.80;4.57;;;;;;;19.00;63.13;100469.91;5079764;28;20038;-71
2023/06/01 05:15:02;;;;;;;11.95;5.10;;;;;;;19.21;62.70;100483.59;5072456;28;20020;-72
2023/06/01 05:17:28;;;;;;;7.70;3.92;;;;;;;19.36;61.80;100484.50;5082319;28;20020;-72
2023/06/01 05:19:53;;;;;;;6.65;4.25;;;;;;;19.51;61.56;100482.63;5085581;28;20478;-68
2023/06/01 05:22:19;;;;;;;8.77;4.30;;;;;;;19.64;60.13;100480.06;5074038;28;20038;-68
2023/06/01 05:24:44;;;;;;;7.35;3.85;;;;;;;19.77;59.34;100472.09;5068487;28;20036;-68
2023/06/01 05:27:10;;;;;;;10.20;5.05;;;;;;;19.95;58.81;100482.56;5085241;28;20016;-67
2023/06/01 05:29:35;;;;;;;10.40;3.90;;;;;;;20.00;57.81;100486.41;5089709;28;20398;-68
2023/06/01 05:32:00;;;;;;;8.85;4.30;;;;;;;20.11;57.45;100485.06;5087069;28;20062;-68
2023/06/01 05:34:26;;;;;;;10.48;4.15;;;;;;;20.25;57.38;100483.38;5084520;28;20043;-67
2023/06/01 05:36:52;;;;;;;8.70;4.00;;;;;;;20.29;57.00;100458.28;5068808;28;20043;-68
2023/06/01 05:39:17;;;;;;;11.80;4.10;;;;;;;20.48;56.81;100484.06;5069260;28;20024;-68
2023/06/01 05:41:43;;;;;;;8.32;4.45;;;;;;;20.58;56.53;100470.94;5080784;28;20028;-67
2023/06/01 05:44:08;;;;;;;7.50;4.05;;;;;;;20.60;55.72;100463.44;5068875;28;20063;-68
2023/06/01 05:46:34;;;;;;;8.52;4.10;;;;;;;20.88;55.58;100480.63;5067439;28;20035;-67
2023/06/01 05:49:00;;;;;;;7.82;3.90;;;;;;;20.92;55.21;100476.50;5081530;28;20051;-68
2023/06/01 05:51:25;;;;;;;6.88;3.83;;;;;;;21.06;55.08;100483.78;5087910;28;20035;-67
2023/06/01 05:53:51;;;;;;;8.68;3.90;;;;;;;21.09;55.24;100469.75;5089530;28;20074;-68
2023/06/01 05:56:17;;;;;;;7.43;4.00;;;;;;;21.25;55.15;100480.34;5081103;28;20111;-68
2023/06/01 05:58:43;;;;;;;7.30;3.97;;;;;;;21.39;55.07;100490.31;5089372;28;20028;-68
2023/06/01 06:01:10;;;;;;;6.65;3.75;;;;;;;21.46;54.85;100483.00;5065949;28;20048;-68
2023/06/01 06:03:36;;;;;;;6.82;4.35;;;;;;;21.56;54.61;100480.75;5085572;28;20024;-67
2023/06/01 06:06:02;;;;;;;7.75;4.72;;;;;;;21.71;53.88;100484.19;5077731;28;20059;-68
2023/06/01 06:08:28;;;;;;;8.30;4.10;;;;;;;21.62;53.48;100450.78;5089003;28;20115;-67
2023/06/01 06:10:53;;;;;;;7.72;3.65;;;;;;;21.84;52.83;100467.91;5088876;28;20478;-67
2023/06/01 06:13:19;;;;;;;12.10;4.57;;;;;;;21.83;53.08;100461.59;5088587;28;20028;-67
2023/06/01 06:15:44;;;;;;;7.53;4.72;;;;;;;21.92;52.31;100473.19;5074471;28;20024;-68
2023/06/01 06:18:10;;;;;;;15.48;4.07;;;;;;;22.02;51.76;100484.56;5087137;28;20031;-68
2023/06/01 06:20:35;;;;;;;7.25;3.22;;;;;;;22.10;51.65;100488.00;5087755;28;20032;-67
2023/06/01 06:23:01;;;;;;;7.63;3.92;;;;;;;22.20;51.73;100473.94;5080829;28;20071;-67
2023/06/01 06:25:27;;;;;;;8.05;3.95;;;;;;;22.21;51.59;100459.22;5064526;28;20037;-67
2023/06/01 06:27:52;;;;;;;10.25;4.45;;;;;;;22.42;51.00;100487.22;5067211;28;20028;-68
2023/06/01 06:30:17;;;;;;;6.78;3.67;;;;;;;22.47;51.47;100477.56;5075259;28;20024;-67
2023/06/01 06:32:43;;;;;;;9.27;3.90;;;;;;;22.62;51.08;100481.84;5067925;28;20024;-69
2023/06/01 06:35:12;;;;;;;5.55;3.55;;;;;;;22.76;50.95;100482.69;5084228;28;20027;-68
2023/06/01 06:37:39;;;;;;;12.88;4.18;;;;;;;22.86;50.75;100472.19;5065240;28;20452;-67
2023/06/01 06:40:06;;;;;;;7.65;3.90;;;;;;;22.96;50.79;100465.22;5069243;28;20085;-67
2023/06/01 06:42:32;;;;;;;6.72;3.53;;;;;;;22.99;50.59;100458.50;5067005;28;20035;-68
2023/06/01 06:44:57;;;;;;;10.32;4.35;;;;;;;23.16;49.86;100479.75;5065208;28;20024;-68
2023/06/01 06:47:25;;;;;;;8.00;4.40;;;;;;;23.25;49.99;100485.88;5064968;28;20659;-68
2023/06/01 06:49:51;;;;;;;10.07;3.80;;;;;;;23.32;49.88;100478.50;5079039;28;20482;-67
2023/06/01 06:52:17;;;;;;;6.85;3.58;;;;;;;23.27;49.47;100457.22;5086347;28;20153;-68
2023/06/01 06:54:43;;;;;;;4.43;3.45;;;;;;;23.35;49.62;100462.50;5076979;28;20149;-67
2023/06/01 06:57:09;;;;;;;5.15;3.88;;;;;;;23.59;49.27;100480.97;5073475;28;20383;-69
2023/06/01 06:59:35;;;;;;;9.98;4.43;;;;;;;23.68;49.41;100481.56;5066698;28;20410;-68
2023/06/01 07:02:00;;;;;;;6.78;3.53;;;;;;;23.78;49.02;100480.06;5066246;28;20068;-69
2023/06/01 07:04:27;;;;;;;8.77;3.60;;;;;;;23.85;49.26;100483.63;5070029;28;20467;-68
2023/06/01 07:06:53;;;;;;;8.52;4.18;;;;;;;23.92;49.07;100478.94;5065250;28;20032;-68
2023/06/01 07:09:18;;;;;;;8.82;4.10;;;;;;;23.98;49.06;100480.88;5081357;28;20035;-68
2023/06/01 07:11:44;;;;;;;6.68;3.97;;;;;;;23.99;48.83;100468.00;5086827;28;20024;-67
2023/06/01 07:14:10;;;;;;;7.82;4.13;;;;;;;24.06;48.63;100464.16;5078550;28;20029;-67
2023/06/01 07:16:36;;;;;;;10.30;4.25;;;;;;;24.14;48.44;100463.94;5066999;28;20466;-67
2023/06/01 07:19:01;;;;;;;6.45;3.78;;;;;;;24.23;48.56;100478.22;5077866;28;20040;-68
2023/06/01 07:21:27;;;;;;;7.18;4.00;;;;;;;24.27;48.44;100466.59;5076454;28;20115;-68
2023/06/01 07:23:52;;;;;;;9.40;4.43;;;;;;;24.28;48.07;100462.78;5086600;28;20387;-69
2023/06/01 07:26:18;;;;;;;6.97;3.78;;;;;;;24.43;48.32;100477.03;5071048;28;20043;-67
2023/06/01 07:28:44;;;;;;;5.88;3.60;;;;;;;24.34;48.42;100461.06;5070507;28;20035;-68
2023/06/01 07:31:09;;;;;;;8.60;3.83;;;;;;;24.50;48.26;100484.41;5066963;28;20109;-69
2023/06/01 07:33:38;;;;;;;11.88;3.90;;;;;;;24.48;47.95;100470.91;5071361;28;20032;-68
2023/06/01 07:36:06;;;;;;;4.38;3.25;;;;;;;24.55;48.04;100468.09;5083504;28;20626;-68
2023/06/01 07:38:32;;;;;;;6.13;3.60;;;;;;;24.64;47.98;100466.81;5071825;28;20028;-68
2023/06/01 07:40:58;;;;;;;9.35;3.80;;;;;;;24.70;47.91;100475.00;5058789;28;20581;-68
2023/06/01 07:43:24;;;;;;;6.93;3.50;;;;;;;24.77;47.60;100475.78;5058741;28;20033;-68
2023/06/01 07:45:49;;;;;;;6.72;3.95;;;;;;;24.81;47.12;100467.94;5063178;28;20041;-69
2023/06/01 07:48:15;;;;;;;5.53;3.83;;;;;;;24.78;46.92;100455.53;5066389;28;20040;-68
2023/06/01 07:50:40;;;;;;;10.82;4.13;;;;;;;24.86;47.11;100455.22;5066091;28;20017;-68
2023/06/01 07:53:06;;;;;;;9.80;4.40;;;;;;;24.93;47.69;100458.78;5063226;28;20410;-69
2023/06/01 07:55:31;;;;;;;5.03;3.80;;;;;;;25.07;47.89;100467.72;5068750;28;20025;-68
2023/06/01 07:57:57;;;;;;;7.20;3.55;;;;;;;25.06;47.76;100441.34;5057760;28;20407;-68
2023/06/01 08:00:22;;;;;;;8.77;4.18;;;;;;;25.19;47.16;100444.81;5060711;28;20033;-68
2023/06/01 08:02:48;;;;;;;5.22;3.95;;;;;;;25.26;46.95;100434.59;5054834;28;20055;-69
2023/06/01 08:05:14;;;;;;;6.88;4.20;;;;;;;25.35;46.65;100451.66;5067942;28;20573;-68
2023/06/01 08:07:40;;;;;;;9.48;4.32;;;;;;;25.36;46.77;100451.44;5072199;28;20020;-68
2023/06/01 08:10:05;;;;;;;6.53;3.80;;;;;;;25.42;46.29;100455.16;5069658;28;20029;-68
2023/06/01 08:12:31;;;;;;;6.55;4.35;;;;;;;25.44;46.31;100453.88;5070170;28;20042;-68
2023/06/01 08:14:58;;;;;;;9.88;4.32;;;;;;;25.44;45.91;100455.78;5071244;28;20028;-67
2023/06/01 08:17:24;;;;;;;7.45;4.05;;;;;;;25.49;46.20;100445.78;5068761;28;20079;-68
2023/06/01 08:19:49;;;;;;;5.93;4.13;;;;;;;25.58;45.79;100446.31;5066953;28;20056;-69
2023/06/01 08:22:16;;;;;;;5.47;3.65;;;;;;;25.61;45.81;100440.38;5070243;28;20028;-69
2023/06/01 08:24:42;;;;;;;8.27;4.38;;;;;;;25.66;45.43;100433.13;5062100;28;20040;-69
2023/06/01 08:27:22;;;;;;;6.40;3.60;;;;;;;25.90;45.09;100453.34;5068268;28;20413;-68
2023/06/01 08:29:48;;;;;;;6.55;4.20;;;;;;;25.90;45.21;100429.47;5070555;28;20482;-68
2023/06/01 08:32:14;;;;;;;7.50;4.10;;;;;;;26.03;45.39;100433.97;5081096;28;20643;-69
2023/06/01 08:34:40;;;;;;;5.93;4.13;;;;;;;26.29;45.41;100453.69;5091225;28;20024;-69
2023/06/01 08:37:06;;;;;;;8.63;4.20;;;;;;;26.37;44.41;100447.00;5068875;28;20043;-69
2023/06/01 08:39:31;;;;;;;4.75;4.03;;;;;;;26.40;43.71;100433.63;5069519;28;20363;-67
2023/06/01 08:42:03;;;;;;;5.82;4.15;;;;;;;26.59;43.00;100450.91;5069491;28;20490;-69
2023/06/01 08:44:37;;;;;;;5.68;3.60;;;;;;;26.68;42.50;100445.94;5071525;28;20292;-67
2023/06/01 08:47:03;;;;;;;6.82;3.72;;;;;;;26.76;42.42;100448.34;5067615;28;20402;-68
2023/06/01 08:49:31;;;;;;;9.95;3.72;;;;;;;26.74;42.94;100432.06;5068461;28;20127;-69
2023/06/01 08:52:00;;;;;;;5.88;4.28;;;;;;;26.88;41.68;100428.03;5081023;28;20098;-69
2023/06/01 08:54:27;;;;;;;7.88;4.32;;;;;;;26.92;41.92;100431.97;5068771;28;20065;-69
2023/06/01 08:56:53;;;;;;;8.10;3.95;;;;;;;27.02;41.63;100428.63;5072474;28;20031;-69
2023/06/01 08:59:19;;;;;;;9.38;4.65;;;;;;;27.07;41.10;100434.25;5088251;28;20125;-68
2023/06/01 09:01:47;;;;;;;5.13;4.00;;;;;;;27.17;40.83;100426.22;5084106;28;20037;-68
2023/06/01 09:04:13;;;;;;;6.65;4.03;;;;;;;27.18;40.31;100422.41;5067345;28;20272;-68
2023/06/01 09:06:41;;;;;;;10.57;4.07;;;;;;;27.15;41.11;100429.22;5068030;28;20032;-69
2023/06/01 09:09:11;;;;;;;10.77;4.30;;;;;;;27.06;41.08;100416.91;5063370;28;20710;-69
2023/06/01 09:11:36;;;;;;;8.77;3.47;;;;;;;27.08;40.54;100417.50;5066175;28;20673;-68
2023/06/01 09:14:03;;;;;;;6.03;3.70;;;;;;;27.10;39.94;100415.34;5062831;28;20028;-71
2023/06/01 09:16:38;;;;;;;7.47;3.60;;;;;;;27.22;39.57;100420.84;5068021;28;20031;-68
2023/06/01 09:19:04;;;;;;;5.68;4.03;;;;;;;27.20;39.77;100407.31;5067008;28;20119;-68
2023/06/01 09:21:29;;;;;;;3.97;3.38;;;;;;;27.27;39.74;100408.06;5068106;28;20111;-69
2023/06/01 09:23:55;;;;;;;5.80;3.67;;;;;;;27.36;40.39;100416.78;5059308;28;20037;-69
2023/06/01 09:26:26;;;;;;;7.53;4.25;;;;;;;27.44;39.28;100408.19;5065664;28;20044;-70
2023/06/01 09:28:54;;;;;;;7.03;4.20;;;;;;;27.42;39.72;100405.66;5067854;28;20026;-68
2023/06/01 09:31:42;;;;;;;10.07;4.60;;;;;;;27.45;39.67;100405.19;5065406;28;20531;-68
2023/06/01 09:34:16;;;;;;;8.73;4.68;;;;;;;27.54;39.85;100411.16;5062637;28;20439;-69
2023/06/01 09:36:42;;;;;;;9.95;4.22;;;;;;;27.53;39.86;100404.78;5065436;28;20383;-70
2023/06/01 09:39:10;;;;;;;6.43;3.67;;;;;;;27.61;39.58;100407.19;5058766;28;20017;-68
2023/06/01 09:41:58;;;;;;;9.02;4.00;;;;;;;27.67;39.00;100405.38;5067693;28;20032;-69
2023/06/01 09:44:30;;;;;;;5.50;3.92;;;;;;;27.66;38.99;100400.94;5065033;28;20514;-69
2023/06/01 09:47:05;;;;;;;7.50;4.25;;;;;;;27.68;38.91;100416.16;5065843;28;20444;-67
2023/06/01 09:49:40;;;;;;;8.52;4.63;;;;;;;27.64;38.48;100408.63;5065086;28;20108;-68
2023/06/01 09:52:06;;;;;;;5.45;4.25;;;;;;;27.66;37.45;100407.28;5067488;28;20063;-69
2023/06/01 09:54:42;;;;;;;8.93;4.03;;;;;;;27.58;37.58;100409.59;5067478;28;20024;-69
2023/06/01 09:57:08;;;;;;;7.45;3.70;;;;;;;27.51;38.33;100389.59;5067631;28;20425;-69
2023/06/01 09:59:43;;;;;;;9.18;3.55;;;;;;;27.69;38.31;100412.31;5067291;28;20123;-69
2023/06/01 10:02:20;;;;;;;7.40;4.07;;;;;;;27.70;37.79;100391.91;5069211;28;20044;-70
2023/06/01 10:04:49;;;;;;;4.63;3.78;;;;;;;27.70;37.85;100402.13;5087654;28;20156;-69
2023/06/01 10:07:16;;;;;;;5.50;4.18;;;;;;;27.61;37.73;100398.06;5068209;28;20058;-69
2023/06/01 10:09:45;;;;;;;7.25;4.38;;;;;;;27.47;37.97;100377.38;5066646;28;20043;-70
2023/06/01 10:12:10;;;;;;;7.60;4.32;;;;;;;27.52;38.14;100402.28;5066662;28;20025;-68
2023/06/01 10:14:38;;;;;;;7.70;4.15;;;;;;;27.43;38.15;100399.06;5065772;28;20039;-70
2023/06/01 10:17:04;;;;;;;8.77;4.30;;;;;;;27.34;38.42;100394.19;5066822;28;20382;-69
2023/06/01 10:19:30;;;;;;;7.88;4.63;;;;;;;27.22;38.87;100382.28;5077582;28;20020;-69
2023/06/01 10:21:59;;;;;;;7.03;4.30;;;;;;;27.11;39.08;100389.47;5071530;28;20028;-69
2023/06/01 10:24:26;;;;;;;9.70;4.13;;;;;;;27.06;38.95;100392.13;5086167;28;20067;-69
2023/06/01 10:27:14;;;;;;;11.32;4.43;;;;;;;27.00;38.73;100390.34;5066817;28;20035;-68
2023/06/01 10:29:41;;;;;;;6.07;3.92;;;;;;;26.90;38.97;100376.31;5075162;28;20043;-70
2023/06/01 10:32:48;;;;;;;10.70;4.47;;;;;;;26.94;39.12;100379.41;5071155;28;20078;-68
2023/06/01 10:35:26;;;;;;;7.07;4.30;;;;;;;26.90;38.91;100379.06;5081377;28;20024;-69
2023/06/01 10:38:07;;;;;;;6.72;4.22;;;;;;;26.86;38.81;100377.88;5069703;28;20122;-70
2023/06/01 10:40:48;;;;;;;8.45;4.60;;;;;;;26.77;38.47;100356.44;5065523;28;20366;-69
2023/06/01 10:43:42;;;;;;;5.30;4.00;;;;;;;26.78;38.84;100371.88;5065868;28;20064;-70
2023/06/01 10:46:32;;;;;;;8.32;4.60;;;;;;;26.74;38.79;100363.25;5045144;28;20101;-69
2023/06/01 10:48:58;;;;;;;11.60;4.70;;;;;;;26.67;39.03;100362.56;5065390;28;20033;-69
2023/06/01 10:51:27;;;;;;;6.25;4.07;;;;;;;26.61;39.03;100355.25;5064772;28;20404;-70
2023/06/01 10:53:54;;;;;;;7.65;4.30;;;;;;;26.65;39.70;100363.84;5068136;28;20131;-70
2023/06/01 10:56:24;;;;;;;7.45;4.43;;;;;;;26.49;39.54;100338.69;5067611;28;20052;-69
2023/06/01 10:59:08;;;;;;;5.13;3.88;;;;;;;26.63;39.72;100355.81;5068775;28;20025;-70
2023/06/01 11:01:46;;;;;;;6.55;4.20;;;;;;;26.63;39.77;100355.81;5068090;28;20151;-70
2023/06/01 11:04:13;;;;;;;6.35;4.40;;;;;;;26.62;39.63;100345.91;5063582;28;20085;-70
2023/06/01 11:06:40;;;;;;;7.15;4.00;;;;;;;26.71;39.65;100354.63;5066071;28;20026;-69
2023/06/01 11:09:16;;;;;;;5.60;4.03;;;;;;;26.76;39.54;100344.59;5065184;28;20039;-69
2023/06/01 11:11:48;;;;;;;6.47;3.85;;;;;;;26.86;38.97;100344.84;5056295;28;20024;-76
2023/06/01 11:14:16;;;;;;;5.82;4.55;;;;;;;26.90;38.93;100325.91;5059047;28;20047;-77
2023/06/01 11:16:41;;;;;;;8.65;4.03;;;;;;;26.95;38.96;100321.34;5067419;28;20016;-78
2023/06/01 11:19:09;;;;;;;5.70;3.83;;;;;;;27.00;38.59;100317.88;5070537;28;20501;-77
2023/06/01 11:21:40;;;;;;;4.97;3.75;;;;;;;27.16;37.96;100326.25;5074723;28;20030;-77
2023/06/01 11:24:13;;;;;;;5.05;3.50;;;;;;;27.21;37.81;100314.53;5057970;28;20086;-77
2023/06/01 11:26:44;;;;;;;6.03;4.13;;;;;;;27.30;37.44;100315.81;5064655;28;20024;-76